createdAt,value
2023-02-24T00:01:52.554Z,6.87
2023-02-24T00:04:20.830Z,7.40
2023-02-24T00:06:48.245Z,7.47
2023-02-24T00:09:23.480Z,6.73
2023-02-24T00:11:57.152Z,8.90
2023-02-24T00:14:26.841Z,7.43
2023-02-24T00:16:54.261Z,8.17
2023-02-24T00:19:23.791Z,7.90
2023-02-24T00:21:51.859Z,8.20
2023-02-24T00:24:18.805Z,7.63
2023-02-24T00:26:48.585Z,7.83
2023-02-24T00:29:15.395Z,8.33
2023-02-24T00:31:43.013Z,7.63
2023-02-24T00:34:15.148Z,7.20
2023-02-24T00:36:41.934Z,8.53
2023-02-24T00:39:10.120Z,7.70
2023-02-24T00:41:46.337Z,7.70
2023-02-24T00:44:14.535Z,7.60
2023-02-24T00:46:47.181Z,8.63
2023-02-24T00:49:20.730Z,7.17
2023-02-24T00:51:49.581Z,7.20
2023-02-24T00:54:18.819Z,7.03
2023-02-24T00:56:48.097Z,7.00
2023-02-24T00:59:16.767Z,7.20
2023-02-24T01:01:46.835Z,6.63
2023-02-24T01:04:14.434Z,6.23
2023-02-24T01:06:48.921Z,6.17
2023-02-24T01:09:18.920Z,6.47
2023-02-24T01:12:06.834Z,6.57
2023-02-24T01:14:36.407Z,5.97
2023-02-24T01:17:04.881Z,5.90
2023-02-24T01:19:34.034Z,6.83
2023-02-24T01:22:03.183Z,6.77
2023-02-24T01:24:39.652Z,6.57
2023-02-24T01:27:07.307Z,5.93
2023-02-24T01:29:39.374Z,6.50
2023-02-24T01:32:22.395Z,6.73
2023-02-24T01:34:52.912Z,6.03
2023-02-24T01:37:20.368Z,6.40
2023-02-24T01:39:48.296Z,5.93
2023-02-24T01:42:19.457Z,5.73
2023-02-24T01:44:46.598Z,5.67
2023-02-24T01:47:15.026Z,5.93
2023-02-24T01:49:45.109Z,6.40
2023-02-24T01:52:18.057Z,5.87
2023-02-24T01:54:50.005Z,5.73
2023-02-24T01:57:21.058Z,6.03
2023-02-24T01:59:54.182Z,6.23
2023-02-24T02:02:24.279Z,5.90
2023-02-24T02:04:59.427Z,5.83
2023-02-24T02:07:29.647Z,5.33
2023-02-24T02:10:00.412Z,5.70
2023-02-24T02:12:28.349Z,5.30
2023-02-24T02:14:58.200Z,4.80
2023-02-24T02:17:55.050Z,5.30
2023-02-24T02:20:42.274Z,4.77
2023-02-24T02:23:21.657Z,4.97
2023-02-24T02:25:59.598Z,5.03
2023-02-24T02:29:08.447Z,5.57
2023-02-24T02:32:12.897Z,5.07
2023-02-24T02:35:19.223Z,4.70
2023-02-24T02:37:51.954Z,5.13
2023-02-24T02:40:39.437Z,5.17
2023-02-24T02:43:44.094Z,5.30
2023-02-24T02:46:17.705Z,4.73
2023-02-24T02:48:53.609Z,4.83
2023-02-24T02:51:29.590Z,4.57
2023-02-24T02:54:16.320Z,4.57
2023-02-24T02:56:55.197Z,4.47
2023-02-24T02:59:26.083Z,4.40
2023-02-24T03:02:01.219Z,4.10
2023-02-24T03:04:30.031Z,4.90
2023-02-24T03:07:01.914Z,4.90
2023-02-24T03:09:32.481Z,4.93
2023-02-24T03:12:05.209Z,4.20
2023-02-24T03:14:37.203Z,4.57
2023-02-24T03:17:17.544Z,4.50
2023-02-24T03:19:46.779Z,4.47
2023-02-24T03:22:19.702Z,4.10
2023-02-24T03:24:46.766Z,4.73
2023-02-24T03:27:19.962Z,4.40
2023-02-24T03:29:58.505Z,4.37
2023-02-24T03:32:34.166Z,4.57
2023-02-24T03:35:05.372Z,4.07
2023-02-24T03:37:33.571Z,4.60
2023-02-24T03:40:12.184Z,4.17
2023-02-24T03:42:43.417Z,4.70
2023-02-24T03:45:10.864Z,4.17
2023-02-24T03:47:38.105Z,4.50
2023-02-24T03:50:17.487Z,3.97
2023-02-24T03:52:53.490Z,4.93
2023-02-24T03:55:29.075Z,4.30
2023-02-24T03:58:20.965Z,4.63
2023-02-24T04:01:09.490Z,4.40
2023-02-24T04:03:49.274Z,4.00
2023-02-24T04:06:26.162Z,4.30
2023-02-24T04:09:03.386Z,3.57
2023-02-24T04:11:50.571Z,3.70
2023-02-24T04:14:29.644Z,4.70
2023-02-24T04:17:34.438Z,4.37
2023-02-24T04:20:16.235Z,4.17
2023-02-24T04:22:48.952Z,4.20
2023-02-24T04:25:24.582Z,3.93
2023-02-24T04:27:58.326Z,4.37
2023-02-24T04:30:34.405Z,4.00
2023-02-24T04:33:01.480Z,3.80
2023-02-24T04:35:28.296Z,3.33
2023-02-24T04:37:55.641Z,4.23
2023-02-24T04:40:23.403Z,4.67
2023-02-24T04:42:52.037Z,4.30
2023-02-24T04:45:28.040Z,4.30
2023-02-24T04:48:00.921Z,4.10
2023-02-24T04:50:43.204Z,4.40
2023-02-24T04:53:17.156Z,3.80
2023-02-24T04:55:49.450Z,3.57
2023-02-24T04:58:19.766Z,4.00
2023-02-24T05:00:49.020Z,4.27
2023-02-24T05:03:17.327Z,4.60
2023-02-24T05:06:00.026Z,4.13
2023-02-24T05:08:29.323Z,4.30
2023-02-24T05:10:57.271Z,4.37
2023-02-24T05:13:27.976Z,3.80
2023-02-24T05:15:56.851Z,3.80
2023-02-24T05:18:24.053Z,3.97
2023-02-24T05:21:14.588Z,4.43
2023-02-24T05:23:46.848Z,4.17
2023-02-24T05:26:18.644Z,4.03
2023-02-24T05:28:49.381Z,4.30
2023-02-24T05:31:23.996Z,3.60
2023-02-24T05:33:57.695Z,3.80
2023-02-24T05:36:27.871Z,4.17
2023-02-24T05:39:00.254Z,4.40
2023-02-24T05:41:35.988Z,3.57
2023-02-24T05:44:08.996Z,3.90
2023-02-24T05:46:38.914Z,3.10
2023-02-24T05:49:11.142Z,3.37
2023-02-24T05:51:39.346Z,3.70
2023-02-24T05:54:09.147Z,3.77
2023-02-24T05:56:39.375Z,3.93
2023-02-24T05:59:09.130Z,3.80
2023-02-24T06:01:43.534Z,3.83
2023-02-24T06:04:20.787Z,4.17
2023-02-24T06:06:52.615Z,3.53
2023-02-24T06:09:23.133Z,4.20
2023-02-24T06:11:50.175Z,3.70
2023-02-24T06:14:17.174Z,4.30
2023-02-24T06:16:43.999Z,3.60
2023-02-24T06:19:12.438Z,4.00
2023-02-24T06:21:41.621Z,3.90
2023-02-24T06:24:18.627Z,3.67
2023-02-24T06:26:46.513Z,4.73
2023-02-24T06:29:15.346Z,4.00
2023-02-24T06:31:44.467Z,3.57
2023-02-24T06:34:13.985Z,4.40
2023-02-24T06:36:41.126Z,4.10
2023-02-24T06:39:08.195Z,4.00
2023-02-24T06:41:39.158Z,3.53
2023-02-24T06:44:05.962Z,4.97
2023-02-24T06:46:32.790Z,4.20
2023-02-24T06:48:59.612Z,4.83
2023-02-24T06:51:30.226Z,3.97
2023-02-24T06:54:00.360Z,4.37
2023-02-24T06:56:28.209Z,4.30
2023-02-24T06:58:58.516Z,4.40
2023-02-24T07:01:28.893Z,4.70
2023-02-24T07:04:08.063Z,3.67
2023-02-24T07:06:38.338Z,3.67
2023-02-24T07:09:16.731Z,3.80
2023-02-24T07:11:51.926Z,4.33
2023-02-24T07:14:20.940Z,4.50
2023-02-24T07:16:52.828Z,3.60
2023-02-24T07:19:22.081Z,4.37
2023-02-24T07:21:52.658Z,4.13
2023-02-24T07:24:25.429Z,4.53
2023-02-24T07:27:00.892Z,4.43
2023-02-24T07:29:29.585Z,4.53
2023-02-24T07:32:01.517Z,4.30
2023-02-24T07:34:30.187Z,4.30
2023-02-24T07:36:57.492Z,4.43
2023-02-24T07:39:25.903Z,4.80
2023-02-24T07:45:01.774Z,4.33
2023-02-24T07:47:29.781Z,4.63
2023-02-24T07:49:56.580Z,4.90
2023-02-24T07:52:23.363Z,4.50
2023-02-24T07:54:50.076Z,5.00
2023-02-24T07:57:18.961Z,5.47
2023-02-24T07:59:46.898Z,5.40
2023-02-24T08:02:14.461Z,6.20
2023-02-24T08:04:44.416Z,5.33
2023-02-24T08:07:14.417Z,5.93
2023-02-24T08:09:44.763Z,5.97
2023-02-24T08:12:21.293Z,6.33
2023-02-24T08:14:53.165Z,5.93
2023-02-24T08:17:22.670Z,6.03
2023-02-24T08:20:08.287Z,6.17
2023-02-24T08:22:37.364Z,5.53
2023-02-24T08:25:08.132Z,6.40
2023-02-24T08:27:43.094Z,6.27
2023-02-24T08:30:23.403Z,5.77
2023-02-24T08:33:02.570Z,6.67
2023-02-24T08:35:32.104Z,6.70
2023-02-24T08:38:07.734Z,6.20
2023-02-24T08:40:50.438Z,5.97
2023-02-24T08:43:42.788Z,6.90
2023-02-24T08:46:13.385Z,6.17
2023-02-24T08:48:55.550Z,7.10
2023-02-24T08:51:28.970Z,6.20
2023-02-24T08:54:15.597Z,7.10
2023-02-24T08:56:55.820Z,6.93
2023-02-24T08:59:37.932Z,6.60
2023-02-24T09:02:24.512Z,6.90
2023-02-24T09:04:58.802Z,8.30
2023-02-24T09:07:28.891Z,6.43
2023-02-24T09:09:56.564Z,7.13
2023-02-24T09:12:25.840Z,8.70
2023-02-24T09:15:04.529Z,7.00
2023-02-24T09:17:49.964Z,7.30
2023-02-24T09:20:38.906Z,7.63
2023-02-24T09:23:08.994Z,7.20
2023-02-24T09:25:44.035Z,6.97
2023-02-24T09:28:19.463Z,7.03
2023-02-24T09:30:51.322Z,8.00
2023-02-24T09:33:21.736Z,7.87
2023-02-24T09:35:52.166Z,6.77
2023-02-24T09:38:36.836Z,7.87
2023-02-24T09:41:29.956Z,7.77
2023-02-24T09:44:19.573Z,7.93
2023-02-24T09:47:13.497Z,8.00
2023-02-24T09:50:11.290Z,8.77
2023-02-24T09:52:48.172Z,9.13
2023-02-24T09:55:46.188Z,10.73
2023-02-24T09:58:41.797Z,9.80
2023-02-24T10:01:33.545Z,8.30
2023-02-24T10:04:20.670Z,7.67
2023-02-24T10:07:15.585Z,7.93
2023-02-24T10:10:19.458Z,7.53
2023-02-24T10:13:17.891Z,7.50
2023-02-24T10:15:59.299Z,6.67
2023-02-24T10:18:45.584Z,7.90
2023-02-24T10:21:49.649Z,7.13
2023-02-24T10:24:47.748Z,6.33
2023-02-24T10:27:53.061Z,6.60
2023-02-24T10:30:40.721Z,6.30
2023-02-24T10:33:18.893Z,5.30
2023-02-24T10:35:45.833Z,6.43
2023-02-24T10:38:13.205Z,5.93
2023-02-24T10:40:56.629Z,5.87
2023-02-24T10:43:45.741Z,6.73
2023-02-24T10:46:41.230Z,6.20
2023-02-24T10:49:16.388Z,6.20
2023-02-24T10:51:51.089Z,6.53
2023-02-24T10:55:05.012Z,5.57
2023-02-24T10:57:44.681Z,5.83
2023-02-24T11:00:30.910Z,5.17
2023-02-24T11:03:08.231Z,3.40
2023-02-24T11:05:56.356Z,3.37
2023-02-24T11:08:41.821Z,3.53
2023-02-24T11:11:20.481Z,3.40
2023-02-24T11:14:10.408Z,3.40
2023-02-24T11:17:12.288Z,3.43
2023-02-24T11:19:47.685Z,3.33
2023-02-24T11:22:19.872Z,3.93
2023-02-24T11:24:51.217Z,3.53
2023-02-24T11:27:24.435Z,3.57
2023-02-24T11:30:26.372Z,3.50
2023-02-24T11:33:06.527Z,3.43
2023-02-24T11:35:41.847Z,3.10
2023-02-24T11:38:37.010Z,3.20
2023-02-24T11:41:13.048Z,2.77
2023-02-24T11:43:43.661Z,3.73
2023-02-24T11:46:17.654Z,3.20
2023-02-24T11:48:49.261Z,3.43
2023-02-24T11:51:27.680Z,3.60
2023-02-24T11:54:02.808Z,4.27
2023-02-24T11:56:54.792Z,3.27
2023-02-24T11:59:46.141Z,3.03
2023-02-24T12:02:38.639Z,2.37
2023-02-24T12:05:27.670Z,2.70
2023-02-24T12:07:56.402Z,3.03
2023-02-24T12:10:27.514Z,2.27
2023-02-24T12:13:15.289Z,2.33
2023-02-24T12:16:11.198Z,2.77
2023-02-24T12:19:04.444Z,2.50
2023-02-24T12:21:40.827Z,2.37
2023-02-24T12:24:17.044Z,2.73
2023-02-24T12:27:08.062Z,2.80
2023-02-24T12:29:43.727Z,2.40
2023-02-24T12:32:30.358Z,2.60
2023-02-24T12:35:10.040Z,2.80
2023-02-24T12:37:58.948Z,2.03
2023-02-24T12:40:46.909Z,2.03
2023-02-24T12:43:19.288Z,2.47
2023-02-24T12:46:13.854Z,2.50
2023-02-24T12:48:59.419Z,2.40
2023-02-24T12:51:53.840Z,2.73
2023-02-24T12:54:29.734Z,3.80
2023-02-24T12:57:17.014Z,3.20
2023-02-24T12:59:44.140Z,3.67
2023-02-24T13:02:37.361Z,3.13
2023-02-24T13:05:32.064Z,3.23
2023-02-24T13:08:26.774Z,3.37
2023-02-24T13:11:13.246Z,3.27
2023-02-24T13:13:50.796Z,2.83
2023-02-24T13:16:28.583Z,3.20
2023-02-24T13:19:05.437Z,2.90
2023-02-24T13:21:33.611Z,2.90
2023-02-24T13:24:01.967Z,2.57
2023-02-24T13:26:32.706Z,3.50
2023-02-24T13:29:10.733Z,2.80
2023-02-24T13:31:48.448Z,3.40
2023-02-24T13:34:33.412Z,3.70
2023-02-24T13:37:00.258Z,3.10
2023-02-24T13:39:35.181Z,3.10
2023-02-24T13:42:24.171Z,2.90
2023-02-24T13:45:10.695Z,3.17
2023-02-24T13:47:43.301Z,2.90
2023-02-24T13:50:27.991Z,3.27
2023-02-24T13:53:29.727Z,2.90
2023-02-24T13:56:21.256Z,3.17
2023-02-24T13:59:05.034Z,3.03
2023-02-24T14:01:44.483Z,2.90
2023-02-24T14:04:21.319Z,3.70
2023-02-24T14:06:55.490Z,3.47
2023-02-24T14:09:29.749Z,3.57
2023-02-24T14:12:04.476Z,2.90
2023-02-24T14:14:31.739Z,3.27
2023-02-24T14:16:58.538Z,3.00
2023-02-24T14:19:26.516Z,3.40
2023-02-24T14:21:56.278Z,3.60
2023-02-24T14:24:23.576Z,3.57
2023-02-24T14:26:56.116Z,3.13
2023-02-24T14:29:31.844Z,3.43
2023-02-24T14:31:59.565Z,3.03
2023-02-24T14:34:29.577Z,4.03
2023-02-24T14:37:03.789Z,3.43
2023-02-24T14:39:32.531Z,3.70
2023-02-24T14:42:09.561Z,3.83
2023-02-24T14:44:46.576Z,3.90
2023-02-24T14:47:15.101Z,3.30
2023-02-24T14:49:51.280Z,3.17
2023-02-24T14:52:38.336Z,3.27
2023-02-24T14:55:20.185Z,3.10
2023-02-24T14:57:52.737Z,3.90
2023-02-24T15:00:35.056Z,3.10
2023-02-24T15:03:14.575Z,3.13
2023-02-24T15:05:45.543Z,2.40
2023-02-24T15:08:41.568Z,2.57
2023-02-24T15:11:14.750Z,2.70
2023-02-24T15:13:54.498Z,2.97
2023-02-24T15:16:36.343Z,2.30
2023-02-24T15:19:04.398Z,2.07
2023-02-24T15:21:33.398Z,2.43
2023-02-24T15:24:02.629Z,2.20
2023-02-24T15:26:34.910Z,2.50
2023-02-24T15:29:14.838Z,2.40
2023-02-24T15:31:47.607Z,2.90
2023-02-24T15:34:29.653Z,2.50
2023-02-24T15:37:03.513Z,4.00
2023-02-24T15:39:32.344Z,3.00
2023-02-24T15:42:32.403Z,3.03
2023-02-24T15:45:02.277Z,3.47
2023-02-24T15:47:43.191Z,3.33
2023-02-24T15:50:11.617Z,3.43
2023-02-24T15:52:39.603Z,3.07
2023-02-24T15:55:07.326Z,3.23
2023-02-24T15:57:34.317Z,2.07
2023-02-24T16:00:23.812Z,3.30
2023-02-24T16:02:50.560Z,2.90
2023-02-24T16:05:17.335Z,3.40
2023-02-24T16:07:46.367Z,2.57
2023-02-24T16:10:28.636Z,2.33
2023-02-24T16:12:58.386Z,2.83
2023-02-24T16:15:48.725Z,2.10
2023-02-24T16:18:34.668Z,2.30
2023-02-24T16:21:17.432Z,1.77
2023-02-24T16:23:48.916Z,2.00
2023-02-24T16:26:28.973Z,2.47
2023-02-24T16:29:00.463Z,1.87
2023-02-24T16:31:27.937Z,2.07
2023-02-24T16:33:56.246Z,2.20
2023-02-24T16:36:25.166Z,2.10
2023-02-24T16:38:52.316Z,2.87
2023-02-24T16:41:19.300Z,4.83
2023-02-24T16:43:46.296Z,3.40
2023-02-24T16:46:20.053Z,3.87
2023-02-24T16:48:49.226Z,3.87
2023-02-24T16:51:16.494Z,4.13
2023-02-24T16:53:43.986Z,3.67
2023-02-24T16:56:13.008Z,4.00
2023-02-24T16:58:39.722Z,3.00
2023-02-24T17:01:06.583Z,3.40
2023-02-24T17:03:45.442Z,3.47
2023-02-24T17:06:12.332Z,2.97
2023-02-24T17:08:41.550Z,2.87
2023-02-24T17:11:14.651Z,3.20
2023-02-24T17:13:42.259Z,3.43
2023-02-24T17:16:09.334Z,3.23
2023-02-24T17:18:37.092Z,3.37
2023-02-24T17:21:04.607Z,3.10
2023-02-24T17:23:32.386Z,3.80
2023-02-24T17:26:01.813Z,3.90
2023-02-24T17:28:29.446Z,3.93
2023-02-24T17:30:56.640Z,4.10
2023-02-24T17:33:23.734Z,3.80
2023-02-24T17:35:50.617Z,4.53
2023-02-24T17:38:23.527Z,3.83
2023-02-24T17:40:50.493Z,4.27
2023-02-24T17:43:17.320Z,4.27
2023-02-24T17:45:45.835Z,4.70
2023-02-24T17:48:14.804Z,4.03
2023-02-24T17:50:42.732Z,3.70
2023-02-24T17:53:09.538Z,3.80
2023-02-24T17:55:36.364Z,3.40
2023-02-24T17:58:03.086Z,3.20
2023-02-24T18:00:29.982Z,3.03
2023-02-24T18:02:57.228Z,2.73
2023-02-24T18:05:24.131Z,2.40
2023-02-24T18:07:50.869Z,3.10
2023-02-24T18:10:18.119Z,3.63
2023-02-24T18:12:45.106Z,3.40
2023-02-24T18:15:20.296Z,2.97
2023-02-24T18:17:47.004Z,3.00
2023-02-24T18:20:36.219Z,2.70
2023-02-24T18:23:02.969Z,2.57
2023-02-24T18:25:29.742Z,2.20
2023-02-24T18:27:56.434Z,2.40
2023-02-24T18:30:23.280Z,2.20
2023-02-24T18:32:51.858Z,3.60
2023-02-24T18:35:21.865Z,4.00
2023-02-24T18:37:53.321Z,6.00
2023-02-24T18:40:20.180Z,10.50
2023-02-24T18:42:49.234Z,5.00
2023-02-24T18:45:16.104Z,7.70
2023-02-24T18:47:42.846Z,7.33
2023-02-24T18:50:10.206Z,4.13
2023-02-24T18:52:36.930Z,3.10
2023-02-24T18:55:04.359Z,7.03
2023-02-24T18:57:31.217Z,4.90
2023-02-24T18:59:58.141Z,6.83
2023-02-24T19:02:24.959Z,7.97
2023-02-24T19:04:53.220Z,4.63
2023-02-24T19:07:19.959Z,4.77
2023-02-24T19:09:50.378Z,7.47
2023-02-24T19:12:18.144Z,3.63
2023-02-24T19:14:45.538Z,6.37
2023-02-24T19:17:12.552Z,5.97
2023-02-24T19:19:39.613Z,3.63
2023-02-24T19:22:06.477Z,4.63
2023-02-24T19:24:33.194Z,3.90
2023-02-24T19:27:01.189Z,4.23
2023-02-24T19:29:28.198Z,3.80
2023-02-24T19:31:57.699Z,3.30
2023-02-24T19:34:25.576Z,3.93
2023-02-24T19:36:52.338Z,4.60
2023-02-24T19:39:19.171Z,2.40
2023-02-24T19:41:48.031Z,2.23
2023-02-24T19:44:16.311Z,2.93
2023-02-24T19:46:43.314Z,5.47
2023-02-24T19:49:10.144Z,5.67
2023-02-24T19:51:37.062Z,4.20
2023-02-24T19:54:05.837Z,5.23
2023-02-24T19:56:42.924Z,6.30
2023-02-24T19:59:10.796Z,18.40
2023-02-24T20:01:37.588Z,7.20
2023-02-24T20:04:05.115Z,8.27
2023-02-24T20:06:33.651Z,3.47
2023-02-24T20:09:00.994Z,6.00
2023-02-24T20:11:29.748Z,4.03
2023-02-24T20:13:56.745Z,4.17
2023-02-24T20:16:25.802Z,5.87
2023-02-24T20:18:55.358Z,5.43
2023-02-24T20:21:22.458Z,4.00
2023-02-24T20:23:49.487Z,11.57
2023-02-24T20:26:16.534Z,3.00
2023-02-24T20:28:47.218Z,4.90
2023-02-24T20:31:18.663Z,4.77
2023-02-24T20:33:47.194Z,3.80
2023-02-24T20:36:37.335Z,3.10
2023-02-24T20:39:10.655Z,2.57
2023-02-24T20:41:37.581Z,7.47
2023-02-24T20:44:04.423Z,3.53
2023-02-24T20:46:32.870Z,3.20
2023-02-24T20:49:04.014Z,6.37
2023-02-24T20:51:36.422Z,2.90
2023-02-24T20:54:07.315Z,2.80
2023-02-24T20:56:36.640Z,3.63
2023-02-24T20:59:18.685Z,2.90
2023-02-24T21:01:47.789Z,2.77
2023-02-24T21:04:21.556Z,2.50
2023-02-24T21:06:48.905Z,2.10
2023-02-24T21:09:16.336Z,2.10
2023-02-24T21:11:43.245Z,2.97
2023-02-24T21:14:17.468Z,2.93
2023-02-24T21:16:46.515Z,2.80
2023-02-24T21:19:13.586Z,3.93
2023-02-24T21:21:40.533Z,3.67
2023-02-24T21:24:13.022Z,4.00
2023-02-24T21:26:42.503Z,2.60
2023-02-24T21:29:09.191Z,8.03
2023-02-24T21:31:36.423Z,4.70
2023-02-24T21:34:03.914Z,3.20
2023-02-24T21:36:30.817Z,2.97
2023-02-24T21:39:00.182Z,3.77
2023-02-24T21:41:27.033Z,2.90
2023-02-24T21:44:21.473Z,2.60
2023-02-24T21:46:48.758Z,2.53
2023-02-24T21:49:36.909Z,2.60
2023-02-24T21:52:09.819Z,3.03
2023-02-24T21:54:37.293Z,3.00
2023-02-24T21:57:04.284Z,2.93
2023-02-24T21:59:31.796Z,2.53
2023-02-24T22:01:58.549Z,3.03
2023-02-24T22:04:25.315Z,3.13
2023-02-24T22:06:52.111Z,2.80
2023-02-24T22:09:19.457Z,2.67
2023-02-24T22:11:47.914Z,3.10
2023-02-24T22:14:15.509Z,2.60
2023-02-24T22:16:42.929Z,2.43
2023-02-24T22:19:10.542Z,2.60
2023-02-24T22:21:39.278Z,2.80
2023-02-24T22:24:06.389Z,2.40
2023-02-24T22:26:33.236Z,2.63
2023-02-24T22:29:01.303Z,3.73
2023-02-24T22:31:31.094Z,2.70
2023-02-24T22:33:58.719Z,2.90
2023-02-24T22:36:28.175Z,2.67
2023-02-24T22:38:56.848Z,3.57
2023-02-24T22:41:27.319Z,3.57
2023-02-24T22:43:54.283Z,3.03
2023-02-24T22:46:24.966Z,2.80
2023-02-24T22:48:52.389Z,2.63
2023-02-24T22:51:19.917Z,3.60
2023-02-24T22:53:49.073Z,2.80
2023-02-24T22:56:19.054Z,4.87
2023-02-24T22:58:46.600Z,6.23
2023-02-24T23:01:20.025Z,4.67
2023-02-24T23:03:47.077Z,3.77
2023-02-24T23:06:16.760Z,5.70
2023-02-24T23:08:49.108Z,5.47
2023-02-24T23:11:25.051Z,4.60
2023-02-24T23:13:52.145Z,3.97
2023-02-24T23:16:26.401Z,3.90
2023-02-24T23:18:56.302Z,2.90
2023-02-24T23:21:26.351Z,3.63
2023-02-24T23:23:56.796Z,3.67
2023-02-24T23:26:35.594Z,3.97
2023-02-24T23:29:03.074Z,3.27
2023-02-24T23:31:30.712Z,3.20
2023-02-24T23:33:58.730Z,2.40
2023-02-24T23:36:26.337Z,3.97
2023-02-24T23:38:54.067Z,2.73
2023-02-24T23:41:20.847Z,3.13
2023-02-24T23:43:47.605Z,2.87
2023-02-24T23:46:14.492Z,2.80
2023-02-24T23:48:41.467Z,3.80
2023-02-24T23:51:14.442Z,2.90
2023-02-24T23:53:43.861Z,2.80
2023-02-24T23:56:23.907Z,2.33
2023-02-24T23:58:55.982Z,2.40
